Lowndesville, South Carolina
Current Conditions -  °F | °C
As of 2:56 AM on Saturday 20 Dec 2014 (Local Time) from KAND Reporting Station
Overcast Overcast  
Wind Chill: 47°   Ceiling: 8500
Heat Index: 47°   Visibility: 10mi
Dew Point: 35°   Wind: 0mph
Humidity: 63%   Direction: NA
Pressure: 30.15"   Gusts: NA
Location:  34.21°N, 82.65°W
Report Text: KAND 200756Z AUTO 00000KT 10SM SCT060 OVC085 08/02 A3015 RMK AO2 SLP208 T00830017
Loading
Personal Weather Stations






























Interactive Weather Map New forecast layout! Learn more

10-Day Weather Forecast

Advertisements
Track Severe Weather on mobile